Safety Runner — WDI4835 — position and weather

sailwx.info

Track history (hours):
 
Tides and Currents Weather Stations Pressure Air Temp Water Temp Dewpoint Dewpoint Depression Visibility Wind Speed Wind Dir Waves Ship Positions

Safety Runner

Owner: American Commercial Barge Line LLC, Jeffersonville, IN. More information available from US FCC via Universal Licensing System and Coast Guard Vessel Documentation Center.

Last reported at 2018-Feb-25 10:00 UTC. Time now 2018-Feb-25 10:16 UTC.
Position N 30°03' W 093°16'.

Length 21 m; draft 3 m.

Type: Towing. MMSI: 367702520.

Date/timePositionNaut miles runAvg speedWind from/ knotsBaromVisibWave heightAir tempDewpointWater temp
2018-Feb-25 10:00N 30°03' W 093°16'2 4.4
2018-Feb-25 09:30N 30°01' W 093°14'2 4.7
2018-Feb-25 09:00N 29°59' W 093°13'3 5.0
2018-Feb-25 08:30N 29°58' W 093°11'2 4.6
2018-Feb-25 08:00N 29°56' W 093°09'41 4.7
2018-Feb-24 23:14N 29°51' W 092°22'2 4.8
2018-Feb-24 22:50N 29°50' W 092°20'2 4.7
2018-Feb-24 22:30N 29°50' W 092°18'2 4.4
2018-Feb-24 21:58N 29°48' W 092°16'2 4.9
2018-Feb-24 21:30N 29°48' W 092°13'1 2.7
2018-Feb-24 21:00N 29°47' W 092°12'3 5.1
2018-Feb-24 20:30N 29°47' W 092°09'2 4.9
2018-Feb-24 20:00N 29°48' W 092°06'2 4.9
2018-Feb-24 19:30N 29°49' W 092°04'3 5.2
2018-Feb-24 19:00N 29°49' W 092°01'56 4.0
2018-Feb-24 05:04N 29°36' W 090°58'0 5.0
2018-Feb-24 05:00N 29°35' W 090°58'3 4.5
2018-Feb-24 04:20N 29°33' W 090°55'4 5.3
2018-Feb-24 03:34N 29°32' W 090°51'0 5.6
2018-Feb-24 03:30N 29°32' W 090°50'3 5.5
2018-Feb-24 03:00N 29°32' W 090°47'2 3.9
2018-Feb-24 02:30N 29°33' W 090°45'2 4.9
2018-Feb-24 02:00N 29°35' W 090°43'2 4.7
2018-Feb-24 01:30N 29°37' W 090°42'0 0.5
2018-Feb-24 00:57N 29°37' W 090°42'1 2.0
2018-Feb-24 00:29N 29°36' W 090°41'2 4.8
2018-Feb-24 00:00N 29°35' W 090°39'2 4.7
2018-Feb-23 23:30N 29°35' W 090°36'2 4.4
2018-Feb-23 23:00N 29°34' W 090°34'  
Track history (hours):
 
Tides and Currents Weather Stations Pressure Air Temp Water Temp Dewpoint Dewpoint Depression Visibility Wind Speed Wind Dir Waves Ship Positions

Safety Runner

Owner: American Commercial Barge Line LLC, Jeffersonville, IN. More information available from US FCC via Universal Licensing System and Coast Guard Vessel Documentation Center.

Last reported at 2018-Feb-25 10:00 UTC. Time now 2018-Feb-25 10:16 UTC.
Position N 30°03' W 093°16'.

Length 21 m; draft 3 m.

Type: Towing. MMSI: 367702520.

Date/timePositionNaut miles runAvg speedWind from/ knotsBaromVisibWave heightAir tempDewpointWater temp
2018-Feb-25 10:00N 30°03' W 093°16'2 4.4
2018-Feb-25 09:30N 30°01' W 093°14'2 4.7
2018-Feb-25 09:00N 29°59' W 093°13'3 5.0
2018-Feb-25 08:30N 29°58' W 093°11'2 4.6
2018-Feb-25 08:00N 29°56' W 093°09'41 4.7
2018-Feb-24 23:14N 29°51' W 092°22'2 4.8
2018-Feb-24 22:50N 29°50' W 092°20'2 4.7
2018-Feb-24 22:30N 29°50' W 092°18'2 4.4
2018-Feb-24 21:58N 29°48' W 092°16'2 4.9
2018-Feb-24 21:30N 29°48' W 092°13'1 2.7
2018-Feb-24 21:00N 29°47' W 092°12'3 5.1
2018-Feb-24 20:30N 29°47' W 092°09'2 4.9
2018-Feb-24 20:00N 29°48' W 092°06'2 4.9
2018-Feb-24 19:30N 29°49' W 092°04'3 5.2
2018-Feb-24 19:00N 29°49' W 092°01'56 4.0
2018-Feb-24 05:04N 29°36' W 090°58'0 5.0
2018-Feb-24 05:00N 29°35' W 090°58'3 4.5
2018-Feb-24 04:20N 29°33' W 090°55'4 5.3
2018-Feb-24 03:34N 29°32' W 090°51'0 5.6
2018-Feb-24 03:30N 29°32' W 090°50'3 5.5
2018-Feb-24 03:00N 29°32' W 090°47'2 3.9
2018-Feb-24 02:30N 29°33' W 090°45'2 4.9
2018-Feb-24 02:00N 29°35' W 090°43'2 4.7
2018-Feb-24 01:30N 29°37' W 090°42'0 0.5
2018-Feb-24 00:57N 29°37' W 090°42'1 2.0
2018-Feb-24 00:29N 29°36' W 090°41'2 4.8
2018-Feb-24 00:00N 29°35' W 090°39'2 4.7
2018-Feb-23 23:30N 29°35' W 090°36'2 4.4
2018-Feb-23 23:00N 29°34' W 090°34'  

Dump ship's entire track history